ヨハネスブルグ の空港の天気 - METARとTAF

ヨハネスブルグ/O.R.タンボ国際空港 ( FAOR / JNB ) - 南アフリカ ヨハネスブルグ
飛行場実況気象(Metar)
観測時間07/16 08:00 SAST (07/16 06:00 UTC)
風向・風速東 4m/s
視程10km以上
天気現象
なし
気温3℃
湿度75%
気圧1037hPa
METARFAOR 160600Z 08008KT CAVOK 03/M01 Q1037 NOSIG
過去の天気等 Google飛行場航空写真 Wunderground天気予報

過去48時間のMETAR

飛行場予報(TAF)
発表時間: 7/16 08:12 SAST (7/16 06:12 UTC)
予報対象時間: 16日8時 SAST ~ 17日14時 SAST
風向・風速東 6m/s
視程10km以上
なし
16日18時 SAST ~ 16日20時 SAST に徐々に
風向・風速北北東 4m/s
17日3時 SAST から
風向・風速北北東 4m/s
視程1500m
天気現象散在した霧
なし
17日4時 SAST ~ 17日8時 SAST に一時的に
視程300m
天気現象
全天を覆う雲 鉛直視程 30m
17日9時 SAST ~ 17日11時 SAST に徐々に
風向・風速東 5m/s
TAF AMD FAOR 160612Z 1606/1712 09012KT CAVOK
BECMG 1616/1618 03007KT
FM170100 03007KT 1500 BCFG NSC
TEMPO 1702/1706 0300 FG VV001
BECMG 1707/1709 09010KT TX13/1612Z TN03/1704Z